Time;durP1;ratioP1;P1;durP2;ratioP2;P2;SDS_P1;SDS_P2;PMS_P1;PMS_P2;Temp;Humidity;BMP_temperature;BMP_pressure;BME280_temperature;BME280_humidity;BME280_pressure;Samples;Min_cycle;Max_cycle;Signal;HPM_P1;HPM_P2
2023/08/30 00:01:11;;;;;;;9.00;5.53;;;;;;;14.26;82.44;100793.72;5112914;28;20027;-60
2023/08/30 00:03:37;;;;;;;7.95;5.25;;;;;;;14.23;82.69;100788.44;5112912;28;20181;-60
2023/08/30 00:06:04;;;;;;;8.48;5.38;;;;;;;14.17;82.82;100785.78;5113177;28;20023;-60
2023/08/30 00:08:30;;;;;;;9.60;5.47;;;;;;;14.16;83.08;100784.03;5112923;28;20028;-60
2023/08/30 00:10:58;;;;;;;11.32;5.38;;;;;;;14.14;82.82;100778.75;5112913;28;20030;-60
2023/08/30 00:13:24;;;;;;;7.35;5.25;;;;;;;14.16;82.69;100787.56;5112910;28;20107;-59
2023/08/30 00:15:49;;;;;;;7.75;5.75;;;;;;;14.13;82.76;100784.03;5114066;28;20156;-60
2023/08/30 00:18:15;;;;;;;10.32;5.50;;;;;;;14.12;82.46;100785.81;5116101;28;20160;-59
2023/08/30 00:20:41;;;;;;;7.45;5.47;;;;;;;14.06;82.72;100777.88;5116529;28;20028;-60
2023/08/30 00:23:06;;;;;;;7.10;5.00;;;;;;;14.02;82.90;100778.78;5116357;28;20374;-61
2023/08/30 00:25:32;;;;;;;9.98;5.20;;;;;;;14.00;83.20;100781.47;5116387;28;20111;-61
2023/08/30 00:27:57;;;;;;;7.40;5.60;;;;;;;13.96;82.84;100777.06;5116342;28;20110;-61
2023/08/30 00:30:22;;;;;;;8.73;5.47;;;;;;;13.94;83.14;100777.94;5116127;28;20053;-60
2023/08/30 00:32:48;;;;;;;9.07;5.25;;;;;;;13.91;83.28;100775.28;5116112;28;20028;-61
2023/08/30 00:35:13;;;;;;;7.65;5.75;;;;;;;13.91;83.13;100772.63;5116464;28;20066;-60
2023/08/30 00:37:38;;;;;;;9.90;5.45;;;;;;;13.90;82.97;100770.88;5097706;28;20038;-60
2023/08/30 00:40:06;;;;;;;9.57;5.63;;;;;;;13.85;83.27;100765.56;5116363;28;20058;-60
2023/08/30 00:42:31;;;;;;;10.65;5.30;;;;;;;13.86;83.16;100769.13;5116302;28;20031;-59
2023/08/30 00:44:57;;;;;;;9.25;5.63;;;;;;;13.88;82.66;100762.91;5116023;28;20024;-59
2023/08/30 00:47:23;;;;;;;9.10;6.10;;;;;;;13.87;82.43;100753.16;5116137;28;20030;-61
2023/08/30 00:49:49;;;;;;;8.88;6.03;;;;;;;13.86;82.29;100751.41;5115948;28;20122;-60
2023/08/30 00:52:15;;;;;;;10.18;5.82;;;;;;;13.78;82.39;100746.13;5115888;28;20075;-60
2023/08/30 00:54:40;;;;;;;11.68;5.95;;;;;;;13.81;83.13;100749.66;5115816;28;20028;-59
2023/08/30 00:57:06;;;;;;;10.73;6.07;;;;;;;13.77;83.16;100751.44;5115749;28;20111;-60
2023/08/30 00:59:33;;;;;;;8.57;6.07;;;;;;;13.78;82.99;100743.47;5115666;28;20110;-61
2023/08/30 01:02:00;;;;;;;8.68;5.82;;;;;;;13.80;82.90;100750.56;5115557;28;20461;-59
2023/08/30 01:04:27;;;;;;;8.77;5.57;;;;;;;13.84;82.34;100744.34;5115903;28;20073;-60
2023/08/30 01:06:52;;;;;;;8.98;5.90;;;;;;;13.77;82.84;100743.47;5115842;28;20426;-60
2023/08/30 01:09:18;;;;;;;9.07;5.90;;;;;;;13.73;83.03;100750.56;5115534;28;20571;-60
2023/08/30 01:12:07;;;;;;;8.27;5.85;;;;;;;13.76;82.91;100749.69;5097234;28;20024;-61
2023/08/30 01:15:06;;;;;;;11.10;6.07;;;;;;;13.86;82.16;100745.22;5115359;28;20062;-61
2023/08/30 01:17:33;;;;;;;8.82;5.45;;;;;;;13.94;81.79;100744.28;5115156;28;20106;-60
2023/08/30 01:20:13;;;;;;;7.20;5.38;;;;;;;14.08;81.28;100746.88;5114951;28;20024;-61
2023/08/30 01:22:59;;;;;;;8.13;5.60;;;;;;;14.20;80.75;100744.16;5115280;28;20080;-60
2023/08/30 01:25:43;;;;;;;9.05;6.30;;;;;;;14.00;81.45;100735.38;5115318;28;20454;-61
2023/08/30 01:28:09;;;;;;;8.73;5.85;;;;;;;13.94;81.20;100733.66;5113733;28;20397;-59
2023/08/30 01:30:39;;;;;;;9.85;6.45;;;;;;;13.85;81.77;100735.47;5115102;28;20031;-60
2023/08/30 01:33:06;;;;;;;9.25;5.75;;;;;;;13.74;81.53;100725.75;5114988;28;20035;-59
2023/08/30 01:35:35;;;;;;;7.68;5.90;;;;;;;13.66;82.19;100732.91;5115013;28;20454;-59
2023/08/30 01:38:03;;;;;;;9.55;5.55;;;;;;;13.69;82.13;100727.56;5114869;28;20452;-60
2023/08/30 01:40:37;;;;;;;7.40;5.22;;;;;;;13.82;81.90;100739.03;5114884;28;20036;-60
2023/08/30 01:43:05;;;;;;;8.23;5.65;;;;;;;13.77;81.59;100725.75;5114946;28;20031;-59
2023/08/30 01:45:33;;;;;;;9.82;5.53;;;;;;;13.76;81.80;100736.41;5114845;28;20032;-60
2023/08/30 01:47:58;;;;;;;9.25;5.90;;;;;;;13.76;81.61;100729.31;5114497;28;20077;-60
2023/08/30 01:50:25;;;;;;;8.25;5.88;;;;;;;13.74;82.16;100736.38;5114971;28;20035;-60
2023/08/30 01:52:51;;;;;;;10.30;5.68;;;;;;;13.78;81.91;100735.50;5114839;28;20023;-60
2023/08/30 01:55:18;;;;;;;8.68;5.97;;;;;;;13.78;81.64;100730.19;5114754;28;20031;-59
2023/08/30 01:57:43;;;;;;;7.43;5.45;;;;;;;13.74;81.03;100735.50;5114671;28;20073;-60
2023/08/30 02:00:09;;;;;;;7.78;5.15;;;;;;;13.74;80.90;100728.41;5114428;28;20027;-61
2023/08/30 02:02:35;;;;;;;8.23;5.60;;;;;;;13.68;80.75;100719.63;5114240;28;20023;-60
2023/08/30 02:05:01;;;;;;;8.90;5.65;;;;;;;13.66;81.19;100729.34;5114664;28;20038;-59
2023/08/30 02:07:56;;;;;;;8.75;5.30;;;;;;;13.60;81.44;100732.03;5096173;28;20468;-60
2023/08/30 02:10:31;;;;;;;7.68;5.43;;;;;;;13.52;81.75;100735.59;5114405;28;20361;-60
2023/08/30 02:12:57;;;;;;;7.18;5.40;;;;;;;13.47;81.47;100732.06;5114348;28;20032;-61
2023/08/30 02:15:25;;;;;;;7.07;5.00;;;;;;;13.50;81.28;100725.88;5114205;28;20089;-61
2023/08/30 02:17:51;;;;;;;6.68;5.05;;;;;;;13.55;81.46;100725.88;5113954;28;20431;-60
2023/08/30 02:20:17;;;;;;;12.13;5.40;;;;;;;13.54;81.64;100714.38;5113916;28;20055;-60
2023/08/30 02:22:43;;;;;;;9.68;5.10;;;;;;;13.54;81.19;100719.69;5114412;28;20028;-60
2023/08/30 02:25:09;;;;;;;7.15;5.00;;;;;;;13.45;81.02;100712.63;5114065;28;20530;-60
2023/08/30 02:27:35;;;;;;;9.63;5.65;;;;;;;13.37;81.51;100722.38;5114263;28;20031;-60
2023/08/30 02:30:02;;;;;;;9.15;5.43;;;;;;;13.22;82.04;100711.75;5113833;28;20070;-60
2023/08/30 02:32:28;;;;;;;11.70;5.38;;;;;;;13.12;82.91;100717.97;5113718;28;20384;-60
2023/08/30 02:34:53;;;;;;;8.63;5.78;;;;;;;13.02;83.38;100710.03;5113898;28;20019;-60
2023/08/30 02:37:19;;;;;;;7.95;5.68;;;;;;;13.00;83.96;100700.31;5114183;28;20023;-59
2023/08/30 02:39:45;;;;;;;9.35;5.70;;;;;;;13.11;84.06;100706.50;5113496;28;20495;-59
2023/08/30 02:42:10;;;;;;;7.20;5.30;;;;;;;13.23;83.62;100703.84;5113721;28;20483;-61
2023/08/30 02:44:36;;;;;;;7.10;4.80;;;;;;;13.33;83.22;100695.84;5114012;28;20024;-59
2023/08/30 02:47:01;;;;;;;8.27;5.30;;;;;;;13.43;82.63;100700.22;5113839;28;20043;-60
2023/08/30 02:49:26;;;;;;;7.90;5.10;;;;;;;13.44;81.94;100694.91;5113722;28;20507;-59
2023/08/30 02:51:52;;;;;;;9.57;5.65;;;;;;;13.41;81.77;100686.97;5113910;28;20072;-60
2023/08/30 02:54:17;;;;;;;9.40;6.20;;;;;;;13.42;82.33;100686.09;5113747;28;20028;-61
2023/08/30 02:56:44;;;;;;;8.43;5.50;;;;;;;13.33;82.58;100687.91;5113614;28;20030;-60
2023/08/30 02:59:10;;;;;;;6.47;5.18;;;;;;;13.25;83.30;100683.47;5113397;28;20024;-61
2023/08/30 03:01:35;;;;;;;9.27;5.63;;;;;;;13.23;83.81;100677.31;5113416;28;20027;-60
2023/08/30 03:04:00;;;;;;;8.65;5.43;;;;;;;13.20;83.93;100681.69;5113475;28;20127;-60
2023/08/30 03:06:26;;;;;;;10.40;5.75;;;;;;;13.19;84.63;100677.25;5113583;28;20561;-61
2023/08/30 03:08:53;;;;;;;7.43;5.55;;;;;;;13.20;84.42;100669.31;5113598;28;20036;-59
2023/08/30 03:11:19;;;;;;;7.90;5.30;;;;;;;13.21;84.46;100680.81;5113527;28;20028;-61
2023/08/30 03:13:44;;;;;;;6.32;4.95;;;;;;;13.19;84.67;100678.16;5113665;28;20373;-60
2023/08/30 03:16:11;;;;;;;7.40;5.10;;;;;;;13.24;84.83;100680.84;5113311;28;20054;-60
2023/08/30 03:18:37;;;;;;;8.07;5.60;;;;;;;13.36;85.10;100680.81;5113094;28;20027;-60
2023/08/30 03:21:03;;;;;;;9.13;5.93;;;;;;;13.47;84.55;100684.28;5113363;28;20108;-60
2023/08/30 03:23:29;;;;;;;9.48;5.88;;;;;;;13.48;85.14;100680.75;5113618;28;20063;-61
2023/08/30 03:25:55;;;;;;;8.65;5.90;;;;;;;13.51;84.76;100679.84;5113674;28;20114;-60
2023/08/30 03:28:22;;;;;;;7.05;5.40;;;;;;;13.57;84.70;100677.16;5113052;28;20442;-59
2023/08/30 03:30:47;;;;;;;7.50;5.75;;;;;;;13.69;84.87;100676.22;5113349;28;20031;-60
2023/08/30 03:33:13;;;;;;;7.50;5.38;;;;;;;13.75;84.60;100662.94;5113345;28;20034;-60
2023/08/30 03:35:38;;;;;;;7.00;5.22;;;;;;;13.78;84.26;100654.94;5113490;28;20504;-60
2023/08/30 03:38:04;;;;;;;6.47;5.15;;;;;;;13.79;84.10;100648.75;5113094;28;20030;-60
2023/08/30 03:40:30;;;;;;;7.80;5.70;;;;;;;13.77;84.47;100646.09;5113260;28;20478;-60
2023/08/30 03:42:55;;;;;;;7.95;5.72;;;;;;;13.81;84.58;100641.66;5113096;28;20027;-61
2023/08/30 03:45:21;;;;;;;14.88;6.40;;;;;;;13.78;84.76;100644.31;5113242;28;20064;-61
2023/08/30 03:47:46;;;;;;;7.90;6.25;;;;;;;13.73;85.00;100644.34;5113187;28;20069;-60
2023/08/30 03:50:12;;;;;;;8.48;6.50;;;;;;;13.72;85.44;100625.78;5113029;28;20050;-60
2023/08/30 03:52:37;;;;;;;11.13;6.20;;;;;;;13.82;85.51;100618.63;5117257;28;20112;-60
2023/08/30 03:55:02;;;;;;;9.57;6.80;;;;;;;13.91;85.45;100614.13;5117051;28;20381;-59
2023/08/30 03:57:28;;;;;;;9.60;6.50;;;;;;;13.94;85.58;100613.25;5116904;28;20062;-60
2023/08/30 03:59:54;;;;;;;9.13;6.90;;;;;;;14.06;86.16;100607.84;5117043;28;20028;-59
2023/08/30 04:02:19;;;;;;;9.23;6.57;;;;;;;14.09;85.50;100598.94;5098590;28;20465;-59
2023/08/30 04:04:47;;;;;;;10.80;6.38;;;;;;;14.14;85.17;100589.19;5117004;28;20037;-61
2023/08/30 04:07:13;;;;;;;9.95;6.65;;;;;;;14.16;84.85;100588.25;5116769;28;20034;-60
2023/08/30 04:09:38;;;;;;;8.55;6.85;;;;;;;14.15;85.54;100585.63;5116766;28;20027;-60
2023/08/30 04:12:04;;;;;;;10.80;6.93;;;;;;;14.13;85.97;100582.09;5116684;28;20023;-59
2023/08/30 04:14:30;;;;;;;11.32;7.38;;;;;;;14.13;86.34;100566.16;5116670;28;20111;-60
2023/08/30 04:16:55;;;;;;;10.57;7.45;;;;;;;14.13;86.61;100572.38;5116371;28;20055;-60
2023/08/30 04:19:21;;;;;;;10.43;7.32;;;;;;;14.09;86.73;100573.28;5116223;28;20016;-60
2023/08/30 04:21:46;;;;;;;11.60;8.25;;;;;;;14.14;87.00;100581.22;5116772;28;20027;-60
2023/08/30 04:24:12;;;;;;;12.73;7.07;;;;;;;14.20;86.98;100583.81;5116488;28;20385;-60
2023/08/30 04:26:37;;;;;;;11.00;7.97;;;;;;;14.09;87.30;100588.31;5116433;28;20024;-61
2023/08/30 04:29:03;;;;;;;10.70;7.85;;;;;;;13.98;87.68;100588.41;5116101;28;20093;-60
2023/08/30 04:31:29;;;;;;;9.63;7.70;;;;;;;13.98;88.01;100585.75;5116056;28;20428;-60
2023/08/30 04:33:55;;;;;;;11.38;8.00;;;;;;;13.95;88.35;100580.47;5116355;28;20489;-60
2023/08/30 04:36:21;;;;;;;11.10;8.15;;;;;;;13.98;88.77;100578.66;5116243;28;20118;-60
2023/08/30 04:38:47;;;;;;;9.38;7.00;;;;;;;14.11;88.49;100574.16;5116146;28;20115;-60
2023/08/30 04:41:12;;;;;;;12.77;7.97;;;;;;;14.15;88.60;100573.22;5115934;28;20024;-61
2023/08/30 04:43:37;;;;;;;9.98;7.53;;;;;;;14.19;88.20;100576.75;5116031;28;20022;-60
2023/08/30 04:46:03;;;;;;;14.15;8.27;;;;;;;14.21;88.18;100575.81;5116031;28;20027;-61
2023/08/30 04:48:28;;;;;;;13.15;8.20;;;;;;;14.27;88.10;100569.59;5115917;28;20031;-61
2023/08/30 04:51:04;;;;;;;12.13;8.30;;;;;;;14.33;88.02;100571.31;5116057;28;20077;-60
2023/08/30 04:53:30;;;;;;;13.05;8.60;;;;;;;14.33;88.25;100568.66;5116020;28;20031;-60
2023/08/30 04:55:56;;;;;;;12.13;8.13;;;;;;;14.31;88.32;100557.16;5097509;28;20024;-61
2023/08/30 04:58:21;;;;;;;16.55;8.70;;;;;;;14.38;88.57;100566.81;5097282;28;20016;-60
2023/08/30 05:00:46;;;;;;;9.95;7.90;;;;;;;14.41;88.47;100566.78;5115513;28;20033;-60
2023/08/30 05:03:12;;;;;;;13.07;8.55;;;;;;;14.43;88.53;100557.94;5115047;28;20160;-61
2023/08/30 05:05:37;;;;;;;11.80;8.10;;;;;;;14.44;88.59;100553.47;5115365;28;20028;-60
2023/08/30 05:08:03;;;;;;;12.52;8.23;;;;;;;14.51;88.75;100550.75;5115500;28;20153;-60
2023/08/30 05:10:29;;;;;;;12.23;8.30;;;;;;;14.49;88.85;100555.22;5114953;28;20477;-60
2023/08/30 05:12:55;;;;;;;11.98;8.77;;;;;;;14.46;89.23;100544.59;5115288;28;20024;-60
2023/08/30 05:15:20;;;;;;;11.75;8.80;;;;;;;14.44;88.90;100541.06;5114951;28;20473;-59
2023/08/30 05:17:46;;;;;;;15.63;9.32;;;;;;;14.38;89.84;100541.13;5114838;28;20027;-59
2023/08/30 05:20:12;;;;;;;15.25;9.77;;;;;;;14.22;91.20;100537.75;5114869;28;20072;-60
2023/08/30 05:22:37;;;;;;;11.98;9.38;;;;;;;14.18;91.48;100538.66;5114813;28;20507;-60
2023/08/30 05:25:03;;;;;;;15.55;10.07;;;;;;;14.13;92.23;100527.19;5114923;28;20030;-61
2023/08/30 05:27:28;;;;;;;14.25;9.50;;;;;;;14.10;92.45;100529.00;5114993;28;20032;-60
2023/08/30 05:29:55;;;;;;;13.50;9.65;;;;;;;14.18;92.55;100532.47;5114484;28;20055;-60
2023/08/30 05:32:21;;;;;;;13.48;9.52;;;;;;;14.22;92.24;100534.22;5114402;28;20100;-60
2023/08/30 05:34:47;;;;;;;17.65;9.57;;;;;;;14.21;92.33;100533.28;5114734;28;20031;-60
2023/08/30 05:37:12;;;;;;;15.68;10.10;;;;;;;14.23;92.61;100531.53;5114563;28;20102;-61
2023/08/30 05:39:38;;;;;;;15.15;9.73;;;;;;;14.23;92.86;100535.97;5114723;28;20031;-60
2023/08/30 05:42:03;;;;;;;12.98;9.65;;;;;;;14.20;93.30;100528.00;5114786;28;20088;-60
2023/08/30 05:44:29;;;;;;;15.38;9.95;;;;;;;14.18;93.11;100521.84;5114606;28;20423;-61
2023/08/30 05:46:54;;;;;;;13.80;9.45;;;;;;;14.16;93.44;100519.19;5114291;28;20028;-59
2023/08/30 05:49:20;;;;;;;13.98;9.63;;;;;;;14.20;93.38;100526.22;5114169;28;20028;-60
2023/08/30 05:51:45;;;;;;;12.98;10.00;;;;;;;14.17;93.99;100518.28;5114630;28;20024;-60
2023/08/30 05:54:10;;;;;;;12.27;9.18;;;;;;;14.26;93.74;100517.31;5114261;28;20023;-60
2023/08/30 05:56:36;;;;;;;12.48;8.95;;;;;;;14.33;93.90;100518.13;5096103;28;20094;-60
2023/08/30 05:59:01;;;;;;;11.82;9.00;;;;;;;14.38;93.97;100519.84;5114021;28;20019;-59
2023/08/30 06:01:27;;;;;;;13.30;9.55;;;;;;;14.42;93.62;100513.59;5114159;28;20107;-61
2023/08/30 06:03:52;;;;;;;15.60;9.32;;;;;;;14.45;93.37;100513.59;5095779;28;20388;-60
2023/08/30 06:06:18;;;;;;;12.90;9.48;;;;;;;14.49;93.41;100511.81;5114390;28;20119;-60
2023/08/30 06:08:43;;;;;;;14.63;9.18;;;;;;;14.53;93.54;100516.19;5113932;28;20032;-59
2023/08/30 06:11:09;;;;;;;13.82;8.70;;;;;;;14.58;93.37;100522.34;5114024;28;20500;-60
2023/08/30 06:13:34;;;;;;;13.60;8.90;;;;;;;14.64;92.63;100510.75;5113376;28;20035;-60
2023/08/30 06:15:59;;;;;;;14.40;9.40;;;;;;;14.72;92.98;100508.88;5114003;28;20028;-60
2023/08/30 06:18:29;;;;;;;12.57;9.10;;;;;;;14.74;93.04;100507.97;5113719;28;20036;-60
2023/08/30 06:20:55;;;;;;;10.75;9.00;;;;;;;14.76;93.11;100502.63;5113724;28;20106;-60
2023/08/30 06:23:20;;;;;;;12.70;8.20;;;;;;;14.75;92.51;100500.88;5113809;28;20150;-59
2023/08/30 06:25:53;;;;;;;12.93;9.05;;;;;;;14.78;93.06;100496.41;5113538;28;20027;-60
2023/08/30 06:28:19;;;;;;;11.32;8.38;;;;;;;14.80;92.97;100498.16;5113759;28;20054;-60
2023/08/30 06:30:44;;;;;;;12.15;8.93;;;;;;;14.75;93.08;100498.22;5113462;28;20080;-60
2023/08/30 06:33:09;;;;;;;12.68;8.52;;;;;;;14.73;93.34;100502.66;5113730;28;20032;-60
2023/08/30 06:35:39;;;;;;;12.63;8.07;;;;;;;14.75;92.30;100493.78;5113480;28;20478;-60
2023/08/30 06:38:05;;;;;;;11.20;7.78;;;;;;;14.70;92.03;100500.94;5113752;28;20115;-60
2023/08/30 06:40:30;;;;;;;10.00;8.07;;;;;;;14.71;92.75;100502.69;5113711;28;20039;-61
2023/08/30 06:42:56;;;;;;;12.80;7.80;;;;;;;14.73;92.31;100508.88;5113383;28;20381;-60
2023/08/30 06:45:22;;;;;;;15.18;7.43;;;;;;;14.74;92.31;100517.75;5113311;28;20721;-59
2023/08/30 06:47:49;;;;;;;12.45;7.85;;;;;;;14.74;92.23;100518.63;5113098;28;20024;-61
2023/08/30 06:50:14;;;;;;;13.30;8.18;;;;;;;14.75;92.93;100519.50;5113124;28;20023;-60
2023/08/30 06:52:40;;;;;;;12.35;7.95;;;;;;;14.78;92.65;100520.34;5113343;28;20028;-60
2023/08/30 06:55:06;;;;;;;13.18;8.35;;;;;;;14.73;92.68;100526.59;5113464;28;20024;-60
2023/08/30 06:57:31;;;;;;;13.48;8.82;;;;;;;14.66;93.17;100512.50;5095169;28;20075;-60
2023/08/30 06:59:58;;;;;;;12.13;8.05;;;;;;;14.67;94.28;100513.38;5113036;28;20366;-61
2023/08/30 07:02:23;;;;;;;15.90;9.15;;;;;;;14.64;94.43;100514.28;5113099;28;20028;-61
2023/08/30 07:04:48;;;;;;;13.00;8.52;;;;;;;14.64;95.45;100518.72;5113062;28;20020;-60
2023/08/30 07:07:14;;;;;;;14.95;9.57;;;;;;;14.58;95.31;100522.34;5113235;28;20055;-62
2023/08/30 07:09:41;;;;;;;17.15;9.18;;;;;;;14.50;96.58;100525.06;5113010;28;20030;-61
2023/08/30 07:12:07;;;;;;;15.13;9.55;;;;;;;14.40;98.14;100504.78;5112994;28;20487;-62
2023/08/30 07:14:32;;;;;;;14.80;10.10;;;;;;;14.37;98.63;100506.59;5113028;28;20111;-61
2023/08/30 07:16:59;;;;;;;20.55;10.55;;;;;;;14.30;99.58;100497.78;5112940;28;20034;-62
2023/08/30 07:19:25;;;;;;;15.13;10.27;;;;;;;14.29;100.00;100491.59;5112645;28;20027;-62
2023/08/30 07:21:50;;;;;;;17.05;9.95;;;;;;;14.22;100.00;100481.06;5112931;28;20347;-61
2023/08/30 07:24:15;;;;;;;17.00;10.35;;;;;;;14.10;100.00;100479.38;5112768;28;20023;-62
2023/08/30 07:26:41;;;;;;;14.93;9.60;;;;;;;14.13;100.00;100471.41;5077274;28;20538;-61
2023/08/30 07:29:06;;;;;;;13.95;9.57;;;;;;;14.19;100.00;100467.78;5078624;28;20047;-62
2023/08/30 07:31:32;;;;;;;13.80;9.48;;;;;;;14.16;100.00;100468.69;5078166;28;20040;-62
2023/08/30 07:33:59;;;;;;;19.15;9.30;;;;;;;14.16;100.00;100467.81;5096800;28;20042;-63
2023/08/30 07:36:25;;;;;;;14.25;9.65;;;;;;;14.14;100.00;100467.84;5096727;28;20043;-63
2023/08/30 07:38:51;;;;;;;16.63;9.75;;;;;;;14.11;100.00;100470.50;5096482;28;20020;-62
2023/08/30 07:41:16;;;;;;;15.23;9.43;;;;;;;14.00;100.00;100464.41;5096790;28;20034;-62
2023/08/30 07:43:41;;;;;;;12.60;8.68;;;;;;;13.93;100.00;100466.25;5096510;28;20024;-61
2023/08/30 07:46:07;;;;;;;11.60;8.20;;;;;;;13.90;100.00;100465.41;5096457;28;20047;-62
2023/08/30 07:48:32;;;;;;;13.10;8.48;;;;;;;13.90;100.00;100463.63;5096341;28;20085;-61
2023/08/30 07:50:58;;;;;;;12.13;8.23;;;;;;;13.85;100.00;100446.84;5096610;28;20024;-62
2023/08/30 07:53:23;;;;;;;15.10;8.13;;;;;;;13.84;100.00;100452.19;5078191;28;20477;-63
2023/08/30 07:55:52;;;;;;;11.93;7.65;;;;;;;13.85;100.00;100453.94;5096246;28;20024;-62
2023/08/30 07:58:18;;;;;;;15.15;8.25;;;;;;;13.87;100.00;100442.41;5096200;28;20031;-63
2023/08/30 08:00:43;;;;;;;11.13;7.95;;;;;;;13.89;100.00;100451.25;5096428;28;20024;-62
2023/08/30 08:03:10;;;;;;;14.07;7.80;;;;;;;13.92;100.00;100453.00;5077830;28;20027;-62
2023/08/30 08:05:36;;;;;;;13.25;7.63;;;;;;;13.96;100.00;100452.97;5096357;28;20235;-63
2023/08/30 08:08:02;;;;;;;10.75;7.38;;;;;;;14.00;100.00;100451.13;5096105;28;20392;-61
2023/08/30 08:10:28;;;;;;;9.55;6.00;;;;;;;13.93;100.00;100458.28;5096231;28;20073;-62
2023/08/30 08:12:54;;;;;;;7.88;6.38;;;;;;;13.89;100.00;100453.91;5095914;28;20024;-62
2023/08/30 08:15:19;;;;;;;9.30;6.57;;;;;;;13.88;100.00;100446.84;5095981;28;20024;-63
2023/08/30 08:17:45;;;;;;;8.05;6.57;;;;;;;13.90;100.00;100450.34;5095608;28;20041;-63
2023/08/30 08:20:10;;;;;;;10.40;6.55;;;;;;;13.94;100.00;100451.19;5095729;28;20037;-63
2023/08/30 08:22:36;;;;;;;7.75;6.05;;;;;;;13.96;100.00;100446.75;5095792;28;20031;-63
2023/08/30 08:25:02;;;;;;;8.10;5.68;;;;;;;13.98;100.00;100452.94;5105164;28;20034;-62
2023/08/30 08:27:27;;;;;;;8.88;5.85;;;;;;;13.94;100.00;100448.53;5115914;28;20028;-61
2023/08/30 08:29:53;;;;;;;11.35;6.40;;;;;;;13.98;100.00;100458.25;5115787;28;20048;-62
2023/08/30 08:32:18;;;;;;;7.90;6.03;;;;;;;13.99;100.00;100452.03;5116110;28;20024;-62
2023/08/30 08:34:44;;;;;;;9.50;6.18;;;;;;;14.01;100.00;100450.25;5115874;28;20024;-61
2023/08/30 08:37:09;;;;;;;10.10;5.60;;;;;;;14.03;100.00;100454.66;5115373;28;20511;-62
2023/08/30 08:39:34;;;;;;;8.40;6.30;;;;;;;14.03;100.00;100454.66;5115725;28;20027;-62
2023/08/30 08:42:02;;;;;;;7.75;5.70;;;;;;;14.07;100.00;100447.53;5115823;28;20076;-61
2023/08/30 08:44:31;;;;;;;7.50;5.53;;;;;;;14.08;100.00;100441.31;5097255;28;20067;-62
2023/08/30 08:46:58;;;;;;;8.05;5.95;;;;;;;14.09;100.00;100442.19;5115518;28;20199;-62
2023/08/30 08:49:28;;;;;;;8.02;5.25;;;;;;;14.13;100.00;100447.47;5115657;28;20039;-60
2023/08/30 08:51:54;;;;;;;8.27;5.25;;;;;;;14.14;100.00;100443.06;5115466;28;20028;-62
2023/08/30 08:54:19;;;;;;;8.60;5.35;;;;;;;14.15;100.00;100442.16;5097700;28;20045;-62
2023/08/30 08:56:45;;;;;;;7.50;5.25;;;;;;;14.20;100.00;100448.28;5097322;28;20412;-61
2023/08/30 08:59:11;;;;;;;9.55;4.95;;;;;;;14.19;100.00;100449.19;5115368;28;20026;-60
2023/08/30 09:01:41;;;;;;;9.07;5.20;;;;;;;14.21;100.00;100450.03;5115380;28;20031;-62
2023/08/30 09:04:08;;;;;;;8.10;4.55;;;;;;;14.20;100.00;100443.84;5115524;28;20028;-61
2023/08/30 09:06:35;;;;;;;7.25;5.15;;;;;;;14.19;100.00;100447.41;5115363;28;20027;-61
2023/08/30 09:09:06;;;;;;;7.10;5.10;;;;;;;14.24;100.00;100445.56;5115300;28;20027;-61
2023/08/30 09:11:32;;;;;;;6.50;4.90;;;;;;;14.27;100.00;100437.56;5115163;28;20036;-61
2023/08/30 09:13:57;;;;;;;7.82;4.85;;;;;;;14.32;100.00;100448.16;5115345;28;20028;-60
2023/08/30 09:16:23;;;;;;;6.10;4.80;;;;;;;14.39;100.00;100435.66;5114772;28;20046;-62
2023/08/30 09:19:02;;;;;;;8.40;5.40;;;;;;;14.49;100.00;100453.31;5114624;28;20039;-61
2023/08/30 09:21:28;;;;;;;6.88;5.35;;;;;;;14.65;100.00;100438.94;5114875;28;20471;-62
2023/08/30 09:24:02;;;;;;;7.55;4.95;;;;;;;14.88;100.00;100438.63;5115183;28;20111;-62
2023/08/30 09:26:31;;;;;;;7.82;5.40;;;;;;;15.21;100.00;100433.75;5114482;28;20446;-62
2023/08/30 09:29:01;;;;;;;8.27;4.97;;;;;;;15.40;100.00;100443.19;5114805;28;20059;-62
2023/08/30 09:31:33;;;;;;;7.85;5.20;;;;;;;15.47;100.00;100446.66;5114750;28;20574;-61
2023/08/30 09:33:58;;;;;;;8.60;5.57;;;;;;;15.41;100.00;100444.97;5114692;28;20376;-61
2023/08/30 09:36:24;;;;;;;8.05;5.10;;;;;;;15.40;100.00;100448.53;5114995;28;20754;-63
2023/08/30 09:38:49;;;;;;;6.72;5.15;;;;;;;15.38;100.00;100441.50;5114707;28;20024;-62
2023/08/30 09:41:16;;;;;;;6.95;4.80;;;;;;;15.42;100.00;100444.06;5114582;28;20428;-63
2023/08/30 09:43:44;;;;;;;6.15;4.72;;;;;;;15.45;100.00;100444.00;5114416;28;20050;-62
2023/08/30 09:46:10;;;;;;;7.47;5.40;;;;;;;15.47;100.00;100444.00;5114545;28;20020;-62
2023/08/30 09:48:38;;;;;;;8.43;5.53;;;;;;;15.46;100.00;100445.78;5113268;28;20485;-62
2023/08/30 09:51:08;;;;;;;9.55;5.20;;;;;;;15.50;100.00;100435.94;5095938;28;20016;-62
2023/08/30 09:53:42;;;;;;;7.20;5.35;;;;;;;15.55;100.00;100447.44;5114694;28;20035;-63
2023/08/30 09:56:10;;;;;;;5.88;4.93;;;;;;;15.62;100.00;100438.41;5114498;28;20020;-63
2023/08/30 09:58:36;;;;;;;6.43;5.20;;;;;;;15.65;100.00;100438.41;5114205;28;20101;-61
2023/08/30 10:01:02;;;;;;;7.38;5.32;;;;;;;15.71;100.00;100438.28;5114483;28;20035;-62
2023/08/30 10:03:30;;;;;;;7.00;6.15;;;;;;;15.76;100.00;100444.44;5114353;28;20027;-60
2023/08/30 10:05:56;;;;;;;7.40;5.90;;;;;;;15.97;100.00;100434.28;5114180;28;20031;-63
2023/08/30 10:08:23;;;;;;;8.55;6.45;;;;;;;16.21;100.00;100436.50;5114142;28;20028;-61
2023/08/30 10:10:50;;;;;;;7.57;6.05;;;;;;;16.43;100.00;100436.97;5114124;28;20036;-63
2023/08/30 10:13:18;;;;;;;7.53;6.15;;;;;;;16.60;100.00;100422.41;5113980;28;20504;-62
2023/08/30 10:15:49;;;;;;;9.93;6.40;;;;;;;16.87;100.00;100426.31;5113982;28;20101;-62
2023/08/30 10:18:19;;;;;;;11.88;6.90;;;;;;;17.20;100.00;100416.69;5113697;28;20023;-62
2023/08/30 10:20:45;;;;;;;10.20;6.60;;;;;;;17.55;100.00;100417.63;5113932;28;20405;-62
2023/08/30 10:23:11;;;;;;;7.63;6.20;;;;;;;17.72;98.78;100421.63;5114119;28;20050;-62
2023/08/30 10:25:38;;;;;;;8.13;6.13;;;;;;;17.85;95.08;100422.22;5113672;28;20469;-62
2023/08/30 10:28:04;;;;;;;8.40;6.60;;;;;;;18.08;96.85;100418.97;5114049;28;20069;-62
2023/08/30 10:30:30;;;;;;;7.13;6.18;;;;;;;18.11;93.62;100415.31;5113588;28;20457;-61
2023/08/30 10:32:55;;;;;;;8.13;6.28;;;;;;;18.06;95.52;100420.78;5113621;28;20031;-62
2023/08/30 10:35:21;;;;;;;8.20;6.70;;;;;;;18.23;94.39;100402.47;5113634;28;20358;-60
2023/08/30 10:37:56;;;;;;;8.05;6.45;;;;;;;18.40;92.70;100406.47;5113454;28;20131;-62
2023/08/30 10:40:22;;;;;;;9.95;6.70;;;;;;;18.53;93.73;100405.19;5113469;28;20035;-62
2023/08/30 10:42:58;;;;;;;8.88;6.13;;;;;;;18.64;91.99;100403.09;5113791;28;20024;-61
2023/08/30 10:45:24;;;;;;;7.35;6.53;;;;;;;18.86;91.03;100399.81;5113400;28;20074;-61
2023/08/30 10:47:55;;;;;;;7.68;6.32;;;;;;;19.04;89.85;100403.72;5113537;28;20505;-61
2023/08/30 10:50:29;;;;;;;11.15;5.80;;;;;;;19.18;88.32;100401.47;5113328;28;20031;-60
2023/08/30 10:52:55;;;;;;;7.43;6.13;;;;;;;19.15;86.93;100402.47;5113289;28;20469;-61
2023/08/30 10:55:23;;;;;;;9.05;6.40;;;;;;;19.19;87.27;100403.25;5092082;28;20031;-60
2023/08/30 10:57:59;;;;;;;9.65;6.55;;;;;;;19.12;86.38;100402.56;5102691;28;20016;-61
2023/08/30 11:00:25;;;;;;;8.20;6.50;;;;;;;19.07;87.29;100393.78;5102019;28;20027;-61
2023/08/30 11:02:51;;;;;;;8.43;5.95;;;;;;;18.99;85.52;100394.03;5104097;28;20036;-61
2023/08/30 11:05:19;;;;;;;7.55;5.88;;;;;;;18.96;86.00;100399.47;5101271;28;20024;-61
2023/08/30 11:07:45;;;;;;;10.23;5.80;;;;;;;18.78;84.77;100383.97;5100972;28;20024;-60
2023/08/30 11:10:12;;;;;;;6.80;5.25;;;;;;;18.67;84.19;100396.75;5102778;28;20074;-62
2023/08/30 11:12:41;;;;;;;7.47;5.50;;;;;;;18.59;85.11;100398.81;5101185;28;20024;-61
2023/08/30 11:15:08;;;;;;;7.63;5.85;;;;;;;18.63;86.19;100403.13;5086135;28;20072;-62
2023/08/30 11:17:34;;;;;;;8.45;5.90;;;;;;;18.65;86.93;100402.16;5101766;28;20023;-62